Time;durP1;ratioP1;P1;durP2;ratioP2;P2;SDS_P1;SDS_P2;PMS_P1;PMS_P2;Temp;Humidity;BMP_temperature;BMP_pressure;BME280_temperature;BME280_humidity;BME280_pressure;Samples;Min_cycle;Max_cycle;Signal;HPM_P1;HPM_P2
2023/02/21 02:15:25;;;;;;;2.45;1.40;;;;;;;6.82;52.31;99433.34;4994869;28;20184;-94
2023/02/21 02:18:09;;;;;;;;;;;;;;;6.95;51.61;99446.44;4964155;28;20030;-92
2023/02/21 02:20:45;;;;;;;2.25;1.40;;;;;;;6.94;51.26;99435.97;4977055;28;19910;-91
2023/02/21 02:23:28;;;;;;;2.38;1.48;;;;;;;7.00;51.48;99435.81;4961476;28;20033;-93
2023/02/21 02:26:28;;;;;;;2.88;1.77;;;;;;;6.99;52.75;99423.47;4978929;28;20022;-93
2023/02/21 02:29:04;;;;;;;2.65;1.52;;;;;;;6.97;51.93;99420.25;4978852;28;20019;-92
2023/02/21 02:32:10;;;;;;;2.50;1.20;;;;;;;6.84;51.65;99394.59;4964967;28;20022;-94
2023/02/21 02:34:50;;;;;;;5.68;2.20;;;;;;;6.79;53.08;99394.50;4907063;28;20081;-93
2023/02/21 02:37:31;;;;;;;1.83;1.40;;;;;;;6.90;52.22;99419.56;4965754;28;20550;-93
2023/02/21 02:40:13;;;;;;;5.20;1.67;;;;;;;6.99;51.80;99412.78;4981122;28;20038;-93
2023/02/21 02:42:53;;;;;;;2.53;1.80;;;;;;;6.98;51.57;99396.94;4964490;28;20027;-92
2023/02/21 02:45:30;;;;;;;2.58;1.60;;;;;;;7.05;50.78;99414.44;4964872;28;20026;-93
2023/02/21 02:48:02;;;;;;;2.25;1.83;;;;;;;7.04;52.07;99404.00;4965625;28;20026;-93
2023/02/21 02:50:28;;;;;;;3.63;2.42;;;;;;;7.05;51.77;99409.09;4947915;28;20033;-94
2023/02/21 02:52:55;;;;;;;3.45;2.25;;;;;;;7.04;52.33;99410.16;4947949;28;20042;-93
2023/02/21 02:55:32;;;;;;;3.55;1.70;;;;;;;7.05;52.21;99417.13;4964159;28;20029;-93
2023/02/21 02:57:57;;;;;;;13.35;7.57;;;;;;;7.01;51.81;99409.84;4963949;28;20504;-93
2023/02/21 03:00:23;;;;;;;10.63;4.78;;;;;;;6.98;52.02;99403.09;4963878;28;20034;-94
2023/02/21 03:02:50;;;;;;;5.43;2.42;;;;;;;7.04;51.35;99420.88;4947434;28;20034;-93
2023/02/21 03:05:49;;;;;;;3.83;2.22;;;;;;;7.09;51.69;99412.91;4965056;28;20092;-93
2023/02/21 03:08:52;;;;;;;5.78;2.60;;;;;;;7.15;51.51;99407.66;4979946;28;20030;-93
2023/02/21 03:11:21;;;;;;;10.15;3.25;;;;;;;7.14;52.22;99398.81;4979261;28;20035;-91
2023/02/21 03:14:25;;;;;;;8.07;3.75;;;;;;;7.07;53.45;99401.63;4964205;28;20038;-93
2023/02/21 03:16:54;;;;;;;9.43;3.85;;;;;;;6.79;54.19;99388.38;4902647;29;20039;-92
2023/02/21 03:19:22;;;;;;;12.73;5.43;;;;;;;6.60;54.75;99393.09;4887529;29;20063;-92
2023/02/21 03:21:50;;;;;;;5.13;3.28;;;;;;;6.44;54.56;99384.03;4911349;28;20131;-92
2023/02/21 03:24:16;;;;;;;6.85;3.75;;;;;;;6.53;54.42;99403.97;4964891;28;20354;-93
2023/02/21 03:26:43;;;;;;;7.25;4.07;;;;;;;6.47;54.72;99372.84;4947360;28;20034;-92
2023/02/21 03:29:09;;;;;;;7.72;5.13;;;;;;;6.55;54.49;99385.00;4947518;28;20125;-92
2023/02/21 03:31:36;;;;;;;11.23;3.95;;;;;;;6.63;54.22;99404.16;4963291;28;20055;-92
2023/02/21 03:34:02;;;;;;;5.93;3.40;;;;;;;6.56;54.46;99400.81;4947465;28;20052;-92
2023/02/21 03:36:28;;;;;;;7.82;3.30;;;;;;;6.52;54.57;99394.34;4964066;28;20120;-92
2023/02/21 03:38:54;;;;;;;8.30;3.42;;;;;;;6.53;54.59;99395.94;4963473;28;20037;-92
2023/02/21 03:41:19;;;;;;;8.93;2.90;;;;;;;6.56;54.04;99400.81;4963972;28;20045;-93
2023/02/21 03:43:45;;;;;;;4.18;2.38;;;;;;;6.74;53.12;99421.19;4963483;28;20023;-92
2023/02/21 03:46:11;;;;;;;3.67;2.40;;;;;;;6.62;52.70;99402.53;4963068;28;20030;-91
2023/02/21 03:48:36;;;;;;;4.93;2.28;;;;;;;6.77;53.21;99412.69;4947617;28;20476;-92
2023/02/21 03:51:02;;;;;;;3.22;2.20;;;;;;;6.81;52.57;99410.34;4963837;28;20071;-94
2023/02/21 03:53:28;;;;;;;4.07;2.13;;;;;;;6.81;52.12;99405.78;4948241;28;20116;-93
2023/02/21 03:55:53;;;;;;;5.32;1.92;;;;;;;6.85;52.37;99401.56;4964141;28;20495;-92
2023/02/21 03:58:21;;;;;;;3.08;1.98;;;;;;;6.80;52.00;99389.97;4963462;28;20038;-92
2023/02/21 04:00:47;;;;;;;3.05;1.95;;;;;;;6.89;52.13;99393.88;4947652;28;20046;-92
2023/02/21 04:03:13;;;;;;;3.25;1.98;;;;;;;6.87;52.07;99404.81;4963414;28;20085;-91
2023/02/21 04:05:38;;;;;;;10.40;3.97;;;;;;;6.70;53.53;99387.94;4964025;28;20114;-92
2023/02/21 04:33:27;;;;;;;12.68;4.07;;;;;;;6.30;55.77;99402.22;5044313;23;20131;-94
2023/02/21 04:35:59;;;;;;;5.40;3.53;;;;;;;6.25;55.60;99391.44;4919919;29;20042;-96
2023/02/21 04:38:37;;;;;;;7.00;3.38;;;;;;;6.27;54.89;99392.03;4918851;29;20091;-95
2023/02/21 04:41:12;;;;;;;6.63;2.88;;;;;;;6.27;55.27;99389.34;4917702;29;20027;-95
2023/02/21 04:43:51;;;;;;;4.88;2.20;;;;;;;6.15;54.92;99365.34;4915636;29;20027;-95
2023/02/21 04:46:20;;;;;;;5.63;2.55;;;;;;;6.27;55.51;99387.47;4918492;29;20031;-96
2023/02/21 04:49:06;;;;;;;3.70;2.38;;;;;;;6.09;55.25;99349.44;4914402;29;20031;-96
2023/02/21 04:51:35;;;;;;;6.97;2.22;;;;;;;6.33;54.94;99380.38;4919642;29;20111;-96
2023/02/21 04:54:13;;;;;;;4.50;2.60;;;;;;;6.33;54.82;99379.53;4911882;29;20019;-94
2023/02/21 04:56:41;;;;;;;3.65;2.22;;;;;;;6.19;54.89;99366.47;4914288;29;20027;-95
2023/02/21 04:59:09;;;;;;;10.23;4.45;;;;;;;6.20;54.91;99361.94;4911951;29;20023;-95
2023/02/21 05:01:38;;;;;;;11.05;3.45;;;;;;;6.28;54.70;99354.31;4928751;29;20031;-95
2023/02/21 05:04:10;;;;;;;6.57;2.90;;;;;;;6.24;54.72;99347.03;4915304;29;20039;-96
2023/02/21 05:06:47;;;;;;;5.38;2.75;;;;;;;6.33;54.53;99364.31;4933525;29;20027;-95
2023/02/21 05:09:13;;;;;;;5.15;2.30;;;;;;;6.41;54.25;99368.44;4932168;29;20027;-95
2023/02/21 05:11:44;;;;;;;4.47;2.95;;;;;;;6.40;54.31;99361.50;4922341;29;20034;-96
2023/02/21 05:19:51;;;;;;;5.15;2.80;;;;;;;6.40;54.17;99348.91;4939920;28;20083;-95
2023/02/21 05:22:39;;;;;;;10.55;3.78;;;;;;;6.46;54.34;99360.53;4910763;29;20048;-95
2023/02/21 05:25:47;;;;;;;;;;;;;;;;;;;;;
2023/02/21 05:28:31;;;;;;;8.60;3.45;;;;;;;6.51;53.41;99343.75;4909001;29;20060;-93
2023/02/21 05:30:57;;;;;;;4.97;3.47;;;;;;;6.72;53.33;99366.28;4872990;29;20124;-94
2023/02/21 05:33:23;;;;;;;14.82;3.42;;;;;;;6.72;53.15;99353.72;4886520;29;20039;-92
2023/02/21 05:36:04;;;;;;;6.55;4.20;;;;;;;6.81;53.35;99368.31;4884295;29;20072;-94
2023/02/21 05:49:52;;;;;;;8.77;4.78;;;;;;;7.21;52.48;99358.47;5661406;23;20051;-95
2023/02/21 05:52:17;;;;;;;6.50;3.95;;;;;;;7.23;51.55;99349.13;4915267;29;20031;-94
2023/02/21 05:54:43;;;;;;;11.70;5.25;;;;;;;7.38;51.65;99351.19;4917190;29;20030;-93
2023/02/21 05:57:14;;;;;;;13.90;6.10;;;;;;;7.56;52.08;99366.16;4937966;23;20043;-95
2023/02/21 05:59:47;;;;;;;21.80;5.28;;;;;;;7.62;50.74;99350.97;4938086;29;20031;-95
2023/02/21 06:02:22;;;;;;;21.23;6.63;;;;;;;7.67;51.05;99349.13;4919913;28;20027;-96
2023/02/21 06:04:57;;;;;;;21.98;6.82;;;;;;;7.85;51.18;99355.25;4925602;29;20023;-94
2023/02/21 06:07:23;;;;;;;26.80;9.27;;;;;;;7.93;51.15;99348.63;4960077;29;20438;-93
2023/02/21 06:09:51;;;;;;;28.00;8.93;;;;;;;7.99;51.27;99351.13;4927172;29;20035;-95
2023/02/21 06:21:02;;;;;;;22.50;8.10;;;;;;;8.36;51.12;99355.75;5374071;23;20051;-94
2023/02/21 06:29:36;;;;;;;24.00;10.40;;;;;;;8.84;50.10;99355.94;4970035;29;20054;-95
2023/02/21 06:36:18;;;;;;;17.63;7.35;;;;;;;9.14;48.77;99335.72;4862837;29;20279;-94
2023/02/21 06:44:21;;;;;;;14.60;5.07;;;;;;;9.69;45.70;99332.50;5005708;23;20058;-93
2023/02/21 06:47:29;;;;;;;21.98;5.40;;;;;;;9.81;45.78;99334.94;4929837;29;20045;-94
2023/02/21 07:52:44;;;;;;;6.70;1.67;;;;;;;14.88;30.03;99300.88;4971326;28;20094;-93
2023/02/21 08:36:15;;;;;;;4.07;1.80;;;;;;;16.46;26.24;99273.41;5090289;23;20086;-94
2023/02/21 08:38:52;;;;;;;2.25;1.38;;;;;;;16.53;25.80;99273.75;4933571;29;20071;-94
2023/02/21 08:41:22;;;;;;;2.83;0.93;;;;;;;16.70;24.82;99282.00;4914476;29;20028;-94
2023/02/21 08:43:55;;;;;;;1.83;0.93;;;;;;;16.88;23.85;99282.94;4932474;29;20027;-96
2023/02/21 08:46:38;;;;;;;5.68;1.48;;;;;;;17.03;23.93;99279.00;4944369;29;20031;-94
2023/02/21 08:49:03;;;;;;;5.40;1.48;;;;;;;17.05;24.07;99243.31;4914219;29;20129;-94
2023/02/21 08:51:33;;;;;;;12.32;2.30;;;;;;;17.20;24.14;99261.13;4916351;29;20011;-95
2023/02/21 08:54:06;;;;;;;3.10;1.20;;;;;;;17.34;23.56;99262.63;4915909;28;20034;-94
2023/02/21 08:56:32;;;;;;;5.57;1.20;;;;;;;17.35;23.33;99249.81;4935217;28;20051;-94
2023/02/21 08:59:02;;;;;;;3.70;1.20;;;;;;;17.43;23.33;99251.78;4933556;28;20077;-95
2023/02/21 09:01:54;;;;;;;;;;;;;;;;;;;;;
2023/02/21 09:04:22;;;;;;;3.72;1.10;;;;;;;17.80;22.77;99254.22;4950310;28;20113;-93
2023/02/21 09:07:18;;;;;;;2.75;1.23;;;;;;;17.85;22.47;99256.81;4951770;28;20098;-94
2023/02/21 09:10:00;;;;;;;3.30;0.95;;;;;;;17.89;21.96;99252.34;4867710;29;20072;-95
2023/02/21 09:12:52;;;;;;;;;;;;;;;;;;;;;
2023/02/21 09:15:20;;;;;;;;;;;;;;;18.05;21.58;99258.88;4913388;29;20118;-95
2023/02/21 09:17:53;;;;;;;1.70;0.88;;;;;;;17.93;21.65;99242.41;4937266;29;19958;-92
2023/02/21 09:20:22;;;;;;;1.10;0.63;;;;;;;18.02;21.55;99253.28;4921375;29;20039;-94
2023/02/21 09:22:48;;;;;;;1.42;0.80;;;;;;;18.10;21.51;99250.56;4926508;29;20131;-94
2023/02/21 09:25:23;;;;;;;4.05;1.20;;;;;;;18.12;20.87;99244.81;4923215;29;20484;-94
2023/02/21 09:27:49;;;;;;;1.15;0.80;;;;;;;18.24;21.38;99255.03;4940707;29;20036;-92
2023/02/21 09:30:28;;;;;;;7.20;1.10;;;;;;;18.14;21.20;99228.94;4920259;29;20525;-93
2023/02/21 09:33:42;;;;;;;;;;;;;;;;;;;;;
2023/02/21 09:43:08;;;;;;;5.75;1.50;;;;;;;18.61;21.00;99252.72;4888432;29;20053;-95
2023/02/21 09:46:08;;;;;;;1.30;0.90;;;;;;;18.61;20.60;99250.00;4898911;29;20050;-96
2023/02/21 09:48:50;;;;;;;1.90;0.90;;;;;;;18.55;21.09;99230.28;4884069;29;20037;-96
2023/02/21 09:51:40;;;;;;;4.32;1.10;;;;;;;18.59;21.16;99225.78;4891521;29;20119;-95
2023/02/21 09:55:03;;;;;;;2.88;1.00;;;;;;;18.48;20.95;99222.59;4910597;29;20040;-94
2023/02/21 09:58:29;;;;;;;1.65;1.13;;;;;;;18.64;21.27;99246.63;4910045;29;20151;-94
2023/02/21 10:01:49;;;;;;;;;;;;;;;;;;;;;
2023/02/21 10:04:40;;;;;;;3.28;1.00;;;;;;;18.72;21.96;99224.00;4907227;29;20487;-94
2023/02/21 10:11:16;;;;;;;;;;;;;;;;;;;;;
2023/02/21 10:14:14;;;;;;;;;;;;;;;;;;;;;
2023/02/21 10:17:16;;;;;;;8.50;1.20;;;;;;;18.94;22.37;99210.09;4925839;29;20116;-95
2023/02/21 10:22:39;;;;;;;2.58;0.90;;;;;;;18.96;21.25;99171.59;4875102;29;20045;-95
2023/02/21 10:26:08;;;;;;;;;;;;;;;;;;;;;
2023/02/21 10:28:52;;;;;;;2.47;1.10;;;;;;;19.06;22.01;99156.78;4889911;29;20120;-94
2023/02/21 10:32:02;;;;;;;3.20;1.73;;;;;;;19.10;21.82;99144.06;4861657;29;20033;-95
2023/02/21 10:34:56;;;;;;;1.63;0.93;;;;;;;19.17;22.52;99152.50;4837939;29;20568;-94
2023/02/21 10:37:51;;;;;;;5.20;1.23;;;;;;;19.24;22.12;99160.19;4823478;29;20054;-96
2023/02/21 10:40:44;;;;;;;2.80;1.20;;;;;;;19.30;22.14;99156.94;4828011;29;20542;-94
2023/02/21 10:43:55;;;;;;;2.00;0.90;;;;;;;19.24;21.45;99135.63;4811370;29;20126;-95
2023/02/21 10:47:06;;;;;;;;;;;;;;;;;;;;;
2023/02/21 10:50:22;;;;;;;1.25;0.80;;;;;;;19.37;22.10;99121.69;4877342;29;20073;-96
2023/02/21 10:53:01;;;;;;;;;;;;;;;;;;;;;
2023/02/21 10:56:12;;;;;;;2.33;1.10;;;;;;;19.42;22.30;99126.16;4879051;29;20097;-94
2023/02/21 10:58:40;;;;;;;4.40;1.10;;;;;;;19.39;21.89;99110.44;4902127;29;20134;-93
2023/02/21 11:01:36;;;;;;;2.40;1.40;;;;;;;19.29;22.02;99094.47;4870520;29;20043;-94
2023/02/21 11:04:56;;;;;;;1.90;1.10;;;;;;;19.49;22.23;99112.00;4926037;29;20042;-94
2023/02/21 11:14:27;;;;;;;7.45;0.98;;;;;;;19.58;19.90;99099.03;4778324;30;20093;-95
2023/02/21 11:17:48;;;;;;;;;;;;;;;;;;;;;
2023/02/21 11:26:48;;;;;;;6.65;0.80;;;;;;;19.69;19.77;99052.97;4779473;29;20416;-94
2023/02/21 11:29:18;;;;;;;1.30;0.82;;;;;;;19.79;19.78;99080.69;4760427;30;20127;-96
2023/02/21 11:31:44;;;;;;;1.20;0.65;;;;;;;19.76;19.16;99078.66;4869519;29;20027;-96
2023/02/21 11:34:32;;;;;;;1.67;0.80;;;;;;;19.79;19.50;99075.25;4928556;28;20059;-96
2023/02/21 11:47:39;;;;;;;;;;;;;;;;;;;;;
2023/02/21 13:04:59;;;;;;;1.48;0.70;;;;;;;20.21;20.72;99002.44;5293828;23;20051;-95
2023/02/21 13:07:53;;;;;;;4.50;1.00;;;;;;;20.24;20.43;99009.97;4938716;29;20053;-95
2023/02/21 13:11:04;;;;;;;2.80;1.00;;;;;;;20.17;21.07;98986.72;4927151;29;20136;-95
2023/02/21 13:19:15;;;;;;;;;;;;;;;;;;;;;
2023/02/21 13:25:53;;;;;;;1.73;1.00;;;;;;;19.91;21.10;99010.84;4963505;29;20121;-95
2023/02/21 13:28:54;;;;;;;2.70;0.80;;;;;;;19.90;20.66;99003.75;5028003;23;20051;-95
2023/02/21 13:31:25;;;;;;;2.70;0.70;;;;;;;19.85;20.40;98977.47;4947944;29;20204;-94
2023/02/21 13:34:00;;;;;;;2.30;0.70;;;;;;;19.85;20.28;98996.59;4913283;29;20137;-94
2023/02/21 13:36:45;;;;;;;3.08;0.80;;;;;;;19.78;20.35;98985.44;4913900;29;20036;-94
2023/02/21 13:57:30;;;;;;;1.58;1.05;;;;;;;20.16;20.80;99000.72;1599258;23;21156;-87
2023/02/21 14:30:22;;;;;;;6.35;1.67;;;;;;;19.54;20.44;98997.88;5281174;23;20133;-95
2023/02/21 14:33:41;;;;;;;6.80;1.23;;;;;;;19.34;20.62;98982.31;4970944;28;20043;-95
2023/02/21 14:36:18;;;;;;;5.43;1.35;;;;;;;19.35;21.03;98998.38;4978536;28;20122;-96
2023/02/21 14:42:29;;;;;;;2.53;1.02;;;;;;;19.14;20.72;98983.97;4982066;28;20046;-96
2023/02/21 14:49:05;;;;;;;2.80;1.40;;;;;;;19.10;21.33;98992.03;4967398;28;20050;-95
2023/02/21 14:51:46;;;;;;;4.38;1.40;;;;;;;18.88;21.27;98965.88;4945774;28;20378;-95
2023/02/21 14:54:36;;;;;;;2.25;1.05;;;;;;;18.97;21.68;98987.66;4939122;28;20045;-95
2023/02/21 14:57:54;;;;;;;2.38;1.35;;;;;;;18.96;21.53;98986.84;4982643;28;20023;-96
2023/02/21 15:00:32;;;;;;;2.95;1.15;;;;;;;18.86;21.56;98984.50;4975195;28;20038;-94
2023/02/21 15:06:07;;;;;;;8.30;3.38;;;;;;;18.64;22.57;98961.09;4984914;28;20034;-94
2023/02/21 15:08:48;;;;;;;5.05;2.38;;;;;;;18.56;22.43;98967.41;4948485;28;20034;-95
2023/02/21 15:12:01;;;;;;;11.00;4.63;;;;;;;18.61;22.90;98985.47;4953449;28;20038;-95
2023/02/21 15:15:14;;;;;;;15.40;6.13;;;;;;;18.47;22.90;98970.19;5075285;23;20050;-94
2023/02/21 15:17:52;;;;;;;9.02;3.70;;;;;;;18.32;22.88;98960.66;5228572;23;20842;-93
2023/02/21 15:20:53;;;;;;;3.92;2.28;;;;;;;18.37;23.07;98981.47;4936896;29;20039;-93
2023/02/21 15:23:34;;;;;;;2.15;1.30;;;;;;;18.24;23.31;98969.69;4947168;29;20433;-94
2023/02/21 15:26:52;;;;;;;2.78;1.38;;;;;;;18.27;23.55;98984.56;4927166;29;20034;-95
2023/02/21 15:29:53;;;;;;;2.42;1.48;;;;;;;18.10;24.01;98978.09;4930310;29;20051;-95
2023/02/21 15:36:33;;;;;;;1.80;1.35;;;;;;;18.03;23.88;98977.00;4875122;29;20052;-96
2023/02/21 15:42:28;;;;;;;3.22;1.67;;;;;;;17.93;24.22;98989.88;4869253;29;20702;-96
2023/02/21 15:45:16;;;;;;;2.13;1.45;;;;;;;18.03;23.83;98999.56;4839453;29;20197;-93
2023/02/21 15:47:44;;;;;;;3.35;1.52;;;;;;;17.82;24.15;98980.41;4891457;29;20063;-94
2023/02/21 15:50:33;;;;;;;2.90;1.60;;;;;;;17.94;24.06;99007.78;4894099;29;20236;-95
2023/02/21 15:53:34;;;;;;;4.07;1.35;;;;;;;17.91;23.81;98997.56;4890942;29;20597;-96
2023/02/21 15:56:24;;;;;;;3.97;1.70;;;;;;;17.81;24.58;98991.66;4887271;29;20123;-94
2023/02/21 15:59:25;;;;;;;3.67;2.00;;;;;;;17.69;24.18;98984.94;4905329;29;20317;-95
2023/02/21 16:09:58;;;;;;;5.40;2.35;;;;;;;17.53;24.54;99002.91;5121126;23;20063;-96
2023/02/21 16:13:22;;;;;;;;;;;;;;;;;;;;;
2023/02/21 16:29:06;;;;;;;5.32;3.00;;;;;;;17.25;26.01;99029.72;6036337;23;20064;-94
2023/02/21 16:31:55;;;;;;;6.93;2.13;;;;;;;17.11;26.03;99027.94;4939277;29;20113;-93
2023/02/21 16:34:30;;;;;;;8.05;3.95;;;;;;;17.02;26.34;99029.06;4913414;29;20039;-93
2023/02/21 16:37:16;;;;;;;6.55;2.60;;;;;;;17.06;26.26;99039.00;4928635;29;20046;-94
2023/02/21 16:49:34;;;;;;;6.35;3.38;;;;;;;16.80;27.26;99055.25;4882648;29;20107;-93
2023/02/21 16:52:00;;;;;;;5.10;2.92;;;;;;;16.66;27.52;99046.41;4915901;29;20488;-93
2023/02/21 16:54:26;;;;;;;4.40;2.15;;;;;;;16.70;27.50;99040.03;4885788;29;20099;-93
2023/02/21 16:56:54;;;;;;;3.83;2.60;;;;;;;16.73;28.15;99055.72;4869590;29;20036;-93
2023/02/21 16:59:23;;;;;;;6.13;2.67;;;;;;;16.56;28.26;99039.38;4870643;29;20055;-94
2023/02/21 17:01:49;;;;;;;7.85;3.33;;;;;;;16.44;28.68;99036.47;4887650;29;20047;-93
2023/02/21 17:04:32;;;;;;;8.40;2.83;;;;;;;16.43;28.73;99040.28;4887891;29;20470;-93
2023/02/21 17:07:09;;;;;;;8.43;2.60;;;;;;;16.43;28.69;99048.44;4886692;29;20044;-93
2023/02/21 17:09:42;;;;;;;5.38;2.38;;;;;;;16.26;28.87;99025.53;4873073;29;20510;-92
2023/02/21 17:12:10;;;;;;;17.35;7.38;;;;;;;16.30;29.16;99044.72;4871968;29;20562;-93
2023/02/21 17:14:43;;;;;;;8.90;3.33;;;;;;;16.31;29.62;99046.31;4870374;29;20044;-94
2023/02/21 17:17:09;;;;;;;10.48;3.30;;;;;;;16.31;29.58;99052.56;4908614;29;20043;-96
2023/02/21 17:19:35;;;;;;;11.23;5.85;;;;;;;16.12;29.56;99031.09;4927377;29;20114;-94
2023/02/21 17:22:01;;;;;;;9.73;4.25;;;;;;;16.09;29.88;99033.63;4925517;29;20055;-95
2023/02/21 17:24:30;;;;;;;10.93;4.25;;;;;;;16.12;29.79;99050.09;4924820;29;20074;-94
2023/02/21 17:27:38;;;;;;;11.30;5.85;;;;;;;16.07;29.88;99049.44;4926163;29;20042;-96
2023/02/21 17:30:11;;;;;;;9.82;5.10;;;;;;;16.03;30.06;99065.53;5001065;23;20430;-95
2023/02/21 17:32:37;;;;;;;10.55;4.97;;;;;;;15.92;30.38;99053.38;4950377;23;20059;-94
2023/02/21 17:35:03;;;;;;;13.13;5.30;;;;;;;15.92;30.78;99067.72;4891522;29;20517;-92
2023/02/21 17:37:31;;;;;;;7.60;4.38;;;;;;;15.84;30.72;99064.97;4905418;29;20031;-93
2023/02/21 17:39:57;;;;;;;10.18;4.63;;;;;;;15.81;31.24;99076.44;4906022;29;20497;-91
2023/02/21 17:42:25;;;;;;;9.18;5.05;;;;;;;15.68;31.56;99072.66;4890115;29;20028;-93
2023/02/21 17:44:53;;;;;;;12.07;6.22;;;;;;;15.56;31.62;99071.31;4889294;29;20032;-92
2023/02/21 17:47:20;;;;;;;14.90;5.68;;;;;;;15.45;31.92;99069.16;4919916;29;20031;-93
2023/02/21 17:49:49;;;;;;;13.25;6.38;;;;;;;15.26;32.08;99063.91;4904431;29;20105;-92
2023/02/21 17:52:15;;;;;;;12.35;6.65;;;;;;;15.26;32.38;99086.41;4905831;29;20016;-92
2023/02/21 17:54:41;;;;;;;14.25;6.57;;;;;;;15.19;32.75;99085.22;4904115;29;20028;-92
2023/02/21 17:57:07;;;;;;;12.88;5.43;;;;;;;15.00;32.86;99069.91;4903888;29;20371;-93
2023/02/21 17:59:34;;;;;;;16.95;5.85;;;;;;;14.87;33.12;99068.81;4891299;29;20032;-93
2023/02/21 18:01:59;;;;;;;9.68;5.10;;;;;;;14.87;33.46;99084.28;4892747;29;20383;-92
2023/02/21 18:04:25;;;;;;;18.00;6.63;;;;;;;14.65;33.76;99066.88;4907722;29;20147;-93
2023/02/21 18:06:51;;;;;;;17.95;7.97;;;;;;;14.55;33.92;99078.72;4891955;29;20035;-93
2023/02/21 18:09:16;;;;;;;17.35;7.30;;;;;;;14.59;34.28;99083.50;4892369;29;20028;-94
2023/02/21 18:11:48;;;;;;;17.40;5.80;;;;;;;14.61;34.09;99109.22;4892194;29;20027;-93
2023/02/21 18:14:13;;;;;;;10.27;5.90;;;;;;;14.46;33.89;99094.00;4892524;29;20371;-94
2023/02/21 18:16:39;;;;;;;14.07;6.65;;;;;;;14.43;34.15;99112.78;4907277;29;20034;-94
2023/02/21 18:19:05;;;;;;;8.63;5.07;;;;;;;14.34;34.26;99101.88;4891842;29;20059;-93
2023/02/21 18:21:33;;;;;;;8.73;4.97;;;;;;;14.20;34.67;99098.34;4906976;29;20486;-93
2023/02/21 18:23:59;;;;;;;7.35;4.75;;;;;;;14.29;34.35;99118.97;4891661;29;20403;-94
2023/02/21 18:26:24;;;;;;;9.82;5.05;;;;;;;14.22;34.99;99124.00;4891267;29;20035;-95
2023/02/21 18:28:50;;;;;;;9.75;4.68;;;;;;;14.12;34.83;99116.84;4891423;29;20513;-93
2023/02/21 18:31:16;;;;;;;9.82;4.65;;;;;;;13.95;34.55;99100.38;4889546;29;20033;-94
2023/02/21 18:33:42;;;;;;;7.68;3.63;;;;;;;14.03;33.97;99115.13;4888866;29;20012;-93
2023/02/21 18:36:08;;;;;;;6.45;3.10;;;;;;;14.01;33.97;99117.31;4888148;29;20036;-93
2023/02/21 18:38:33;;;;;;;8.35;2.97;;;;;;;14.06;33.80;99104.50;4888090;29;20064;-94
2023/02/21 18:41:00;;;;;;;3.85;2.40;;;;;;;14.15;33.11;99097.31;4888209;29;20526;-94
2023/02/21 18:43:27;;;;;;;5.43;3.45;;;;;;;14.34;33.09;99113.50;4872734;29;20028;-92
2023/02/21 18:45:53;;;;;;;6.00;3.40;;;;;;;14.33;33.23;99109.16;4872429;29;20083;-93
2023/02/21 18:48:20;;;;;;;6.43;3.40;;;;;;;14.37;33.12;99117.50;4888802;29;20087;-94
2023/02/21 18:50:45;;;;;;;6.45;3.50;;;;;;;14.32;33.36;99104.88;4888252;29;20034;-93
2023/02/21 18:53:11;;;;;;;9.27;3.70;;;;;;;14.37;33.67;99114.78;4887954;29;20024;-93
2023/02/21 18:55:37;;;;;;;13.13;4.30;;;;;;;14.32;34.09;99118.41;4872923;29;20035;-93
2023/02/21 18:58:03;;;;;;;10.75;4.75;;;;;;;14.21;34.61;99116.16;4873239;29;20040;-93
2023/02/21 19:00:29;;;;;;;9.18;4.43;;;;;;;14.10;34.82;99105.53;4888477;29;20024;-94
2023/02/21 19:02:55;;;;;;;7.22;4.55;;;;;;;14.13;34.67;99114.94;4903900;29;20546;-94
2023/02/21 19:05:21;;;;;;;6.75;3.92;;;;;;;14.06;34.80;99118.06;4887918;29;20032;-93
2023/02/21 19:07:47;;;;;;;6.63;4.10;;;;;;;13.83;34.86;99098.16;4873363;29;20028;-93
2023/02/21 19:10:15;;;;;;;7.85;4.45;;;;;;;13.86;35.24;99108.41;4887842;29;20122;-94
2023/02/21 19:12:40;;;;;;;9.73;4.00;;;;;;;13.75;35.11;99106.94;4888218;29;20032;-93
2023/02/21 19:15:09;;;;;;;7.05;3.13;;;;;;;13.79;34.24;99113.38;4887785;29;20059;-94
2023/02/21 19:17:34;;;;;;;7.90;3.33;;;;;;;13.87;34.26;99131.63;4887910;29;20039;-94
2023/02/21 19:20:00;;;;;;;4.00;2.75;;;;;;;13.90;34.27;99131.06;4872976;29;20040;-93
2023/02/21 19:22:26;;;;;;;6.75;3.50;;;;;;;13.92;33.84;99139.69;4903141;29;20438;-93
2023/02/21 19:24:51;;;;;;;11.40;5.72;;;;;;;13.87;34.12;99133.56;4886941;29;20024;-93
2023/02/21 19:27:17;;;;;;;10.75;5.05;;;;;;;13.88;34.66;99141.38;4887539;29;20031;-93
2023/02/21 19:29:43;;;;;;;10.35;5.22;;;;;;;13.92;35.04;99157.81;4871528;29;20039;-93
2023/02/21 19:32:08;;;;;;;14.15;5.70;;;;;;;13.82;35.38;99156.09;4879798;29;20056;-92
2023/02/21 19:34:34;;;;;;;13.70;7.10;;;;;;;13.81;35.24;99154.47;4906183;29;20051;-93
2023/02/21 19:37:00;;;;;;;17.35;7.70;;;;;;;13.83;35.48;99165.81;4890843;29;20031;-93
2023/02/21 19:39:26;;;;;;;13.70;7.20;;;;;;;13.65;35.92;99155.81;4906409;29;20024;-93
2023/02/21 19:41:51;;;;;;;16.30;7.65;;;;;;;13.62;36.50;99159.13;4921980;29;20480;-92
2023/02/21 19:44:17;;;;;;;11.80;6.93;;;;;;;13.58;36.39;99167.00;4905905;29;20034;-93
2023/02/21 19:46:43;;;;;;;21.63;8.77;;;;;;;13.41;36.49;99161.31;4921551;29;20031;-93
2023/02/21 19:49:16;;;;;;;24.05;11.55;;;;;;;13.38;36.42;99167.28;4922003;29;20028;-93
2023/02/21 19:51:45;;;;;;;43.50;16.83;;;;;;;13.29;35.93;99164.44;4892216;29;20119;-93
2023/02/21 19:54:11;;;;;;;24.33;9.70;;;;;;;13.31;35.96;99170.38;4890854;29;20485;-93
2023/02/21 19:56:37;;;;;;;16.23;8.05;;;;;;;13.27;35.71;99164.69;4889809;29;20038;-93
2023/02/21 19:59:03;;;;;;;18.02;8.32;;;;;;;13.36;35.39;99180.31;4905886;29;20043;-92
2023/02/21 20:01:31;;;;;;;9.40;4.50;;;;;;;13.25;35.69;99164.19;4905236;29;20118;-94
2023/02/21 20:03:57;;;;;;;6.55;4.00;;;;;;;13.33;35.77;99181.69;4906187;29;20069;-92
2023/02/21 20:06:26;;;;;;;12.55;7.03;;;;;;;13.39;35.79;99188.66;4920800;29;20455;-93
2023/02/21 20:08:53;;;;;;;11.00;5.70;;;;;;;13.38;35.61;99183.53;4905471;29;20031;-93
2023/02/21 20:11:19;;;;;;;8.13;5.05;;;;;;;13.39;35.47;99183.22;4905742;29;20027;-93
2023/02/21 20:13:45;;;;;;;14.30;6.22;;;;;;;13.39;35.91;99187.84;4890051;29;20038;-94
2023/02/21 20:16:14;;;;;;;12.48;7.00;;;;;;;13.30;35.79;99174.16;4889670;29;20457;-93
2023/02/21 20:18:40;;;;;;;10.43;6.60;;;;;;;13.32;36.13;99177.38;4891059;29;20078;-93
2023/02/21 20:21:06;;;;;;;12.77;6.93;;;;;;;13.28;36.05;99177.13;4905813;29;20034;-93
2023/02/21 20:23:32;;;;;;;13.05;7.15;;;;;;;13.13;36.49;99158.41;4904387;29;20024;-93
2023/02/21 20:25:57;;;;;;;18.00;8.35;;;;;;;13.10;37.18;99156.28;4905618;29;20031;-93
2023/02/21 20:28:23;;;;;;;15.40;7.78;;;;;;;13.05;36.62;99154.47;4890410;29;20023;-93
2023/02/21 20:30:49;;;;;;;16.25;7.90;;;;;;;13.07;36.67;99160.38;4906042;29;20024;-93
2023/02/21 20:33:14;;;;;;;20.13;7.68;;;;;;;13.21;36.66;99176.66;4921419;29;20040;-93
2023/02/21 20:35:41;;;;;;;12.05;7.07;;;;;;;13.01;37.88;99202.09;4905808;29;20031;-92
2023/02/21 20:38:08;;;;;;;11.85;6.63;;;;;;;12.84;37.84;99194.41;4890553;29;20094;-93
2023/02/21 20:40:36;;;;;;;12.18;7.15;;;;;;;12.79;38.04;99199.88;4905059;29;20383;-92
2023/02/21 20:43:02;;;;;;;13.82;6.82;;;;;;;12.74;38.34;99216.97;4920623;29;20026;-93
2023/02/21 20:45:27;;;;;;;12.60;7.53;;;;;;;12.50;38.56;99195.31;4920748;29;20031;-93
2023/02/21 20:47:53;;;;;;;12.23;7.45;;;;;;;12.59;38.57;99208.19;4904832;29;20031;-92
2023/02/21 20:50:25;;;;;;;22.27;7.43;;;;;;;12.60;38.73;99215.22;4890195;29;20059;-93
2023/02/21 20:52:50;;;;;;;14.00;6.07;;;;;;;12.51;38.35;99207.75;4890444;29;20565;-93
2023/02/21 20:55:18;;;;;;;11.90;6.50;;;;;;;12.56;38.82;99211.50;4904764;29;20063;-93
2023/02/21 20:57:44;;;;;;;10.73;5.53;;;;;;;12.49;38.64;99195.59;4920291;29;20032;-94
2023/02/21 21:00:11;;;;;;;10.82;6.20;;;;;;;12.36;38.86;99175.47;4904878;29;20474;-93
2023/02/21 21:02:37;;;;;;;10.18;6.15;;;;;;;12.45;38.46;99195.38;4888884;29;20088;-93
2023/02/21 21:05:12;;;;;;;10.45;5.65;;;;;;;12.41;38.74;99191.66;4904585;29;20438;-93
2023/02/21 21:07:39;;;;;;;10.60;5.68;;;;;;;12.38;38.86;99192.19;4891225;29;20435;-93
2023/02/21 21:10:08;;;;;;;9.02;5.85;;;;;;;12.35;38.91;99190.09;4890279;29;20028;-92
2023/02/21 21:12:34;;;;;;;8.07;5.38;;;;;;;12.39;38.76;99193.81;4890327;29;20564;-93
2023/02/21 21:15:00;;;;;;;22.20;7.18;;;;;;;12.39;38.91;99207.31;4889769;29;20039;-94
2023/02/21 21:17:25;;;;;;;14.27;6.68;;;;;;;12.28;39.12;99195.78;4920618;29;20028;-93